sensor_id;sensor_type;location;lat;lon;timestamp;pressure;altitude;pressure_sealevel;temperature;humidity
2681;BME280;1350;42.134;24.708;2022-11-27T00:01:24;100531.69;;;5.76;98.78
2681;BME280;1350;42.134;24.708;2022-11-27T00:03:52;100529.84;;;5.81;97.97
2681;BME280;1350;42.134;24.708;2022-11-27T00:06:21;100529.16;;;5.70;98.78
2681;BME280;1350;42.134;24.708;2022-11-27T00:08:50;100528.06;;;5.81;99.09
2681;BME280;1350;42.134;24.708;2022-11-27T00:11:18;100537.53;;;5.94;97.83
2681;BME280;1350;42.134;24.708;2022-11-27T00:13:45;100528.53;;;6.07;97.28
2681;BME280;1350;42.134;24.708;2022-11-27T00:16:13;100535.66;;;6.01;97.29
2681;BME280;1350;42.134;24.708;2022-11-27T00:18:40;100538.94;;;6.13;97.28
2681;BME280;1350;42.134;24.708;2022-11-27T00:21:10;100543.03;;;5.79;99.40
2681;BME280;1350;42.134;24.708;2022-11-27T00:23:37;100539.94;;;5.56;100.00
2681;BME280;1350;42.134;24.708;2022-11-27T00:26:06;100539.81;;;5.62;100.00
2681;BME280;1350;42.134;24.708;2022-11-27T00:28:34;100538.16;;;5.55;100.00
2681;BME280;1350;42.134;24.708;2022-11-27T00:31:03;100540.75;;;5.58;100.00
2681;BME280;1350;42.134;24.708;2022-11-27T00:33:30;100543.38;;;5.58;100.00
2681;BME280;1350;42.134;24.708;2022-11-27T00:36:00;100548.72;;;5.54;100.00
2681;BME280;1350;42.134;24.708;2022-11-27T00:38:27;100543.53;;;5.49;100.00
2681;BME280;1350;42.134;24.708;2022-11-27T00:40:57;100549.69;;;5.50;100.00
2681;BME280;1350;42.134;24.708;2022-11-27T00:43:26;100551.44;;;5.49;100.00
2681;BME280;1350;42.134;24.708;2022-11-27T00:45:52;100560.72;;;5.70;100.00
2681;BME280;1350;42.134;24.708;2022-11-27T00:48:19;100551.16;;;5.66;100.00
2681;BME280;1350;42.134;24.708;2022-11-27T00:50:46;100558.88;;;5.76;100.00
2681;BME280;1350;42.134;24.708;2022-11-27T00:53:12;100561.81;;;5.57;100.00
2681;BME280;1350;42.134;24.708;2022-11-27T00:55:39;100572.38;;;5.54;100.00
2681;BME280;1350;42.134;24.708;2022-11-27T00:58:06;100568.88;;;5.55;100.00
2681;BME280;1350;42.134;24.708;2022-11-27T01:00:34;100558.00;;;5.76;100.00
2681;BME280;1350;42.134;24.708;2022-11-27T01:03:00;100558.66;;;5.90;100.00
2681;BME280;1350;42.134;24.708;2022-11-27T01:05:27;100558.66;;;5.90;100.00
2681;BME280;1350;42.134;24.708;2022-11-27T01:07:54;100554.31;;;5.89;100.00
2681;BME280;1350;42.134;24.708;2022-11-27T01:10:20;100555.31;;;5.79;100.00
2681;BME280;1350;42.134;24.708;2022-11-27T01:12:48;100549.81;;;5.92;100.00
2681;BME280;1350;42.134;24.708;2022-11-27T01:15:15;100552.50;;;5.91;100.00
2681;BME280;1350;42.134;24.708;2022-11-27T01:17:43;100555.03;;;5.95;100.00
2681;BME280;1350;42.134;24.708;2022-11-27T01:20:10;100550.63;;;5.97;100.00
2681;BME280;1350;42.134;24.708;2022-11-27T01:22:37;100551.81;;;5.78;100.00
2681;BME280;1350;42.134;24.708;2022-11-27T01:25:05;100543.22;;;5.69;100.00
2681;BME280;1350;42.134;24.708;2022-11-27T01:27:32;100550.59;;;5.47;100.00
2681;BME280;1350;42.134;24.708;2022-11-27T01:29:59;100542.75;;;5.46;100.00
2681;BME280;1350;42.134;24.708;2022-11-27T01:32:25;100547.03;;;5.50;100.00
2681;BME280;1350;42.134;24.708;2022-11-27T01:34:53;100546.44;;;5.33;100.00
2681;BME280;1350;42.134;24.708;2022-11-27T01:37:20;100541.13;;;5.37;100.00
2681;BME280;1350;42.134;24.708;2022-11-27T01:39:47;100538.31;;;5.46;100.00
2681;BME280;1350;42.134;24.708;2022-11-27T01:42:13;100553.22;;;5.49;100.00
2681;BME280;1350;42.134;24.708;2022-11-27T01:44:54;100547.53;;;5.73;100.00
2681;BME280;1350;42.134;24.708;2022-11-27T01:47:43;100552.72;;;5.76;100.00
2681;BME280;1350;42.134;24.708;2022-11-27T01:50:16;100540.69;;;5.63;100.00
2681;BME280;1350;42.134;24.708;2022-11-27T01:52:47;100540.88;;;5.51;100.00
2681;BME280;1350;42.134;24.708;2022-11-27T01:55:20;100539.78;;;5.64;100.00
2681;BME280;1350;42.134;24.708;2022-11-27T01:57:51;100541.34;;;5.75;100.00
2681;BME280;1350;42.134;24.708;2022-11-27T02:00:19;100538.91;;;5.63;100.00
2681;BME280;1350;42.134;24.708;2022-11-27T02:02:46;100534.50;;;5.65;100.00
2681;BME280;1350;42.134;24.708;2022-11-27T02:05:18;100532.31;;;5.41;100.00
2681;BME280;1350;42.134;24.708;2022-11-27T02:07:45;100529.88;;;5.26;100.00
2681;BME280;1350;42.134;24.708;2022-11-27T02:10:13;100533.47;;;5.22;100.00
2681;BME280;1350;42.134;24.708;2022-11-27T02:12:46;100527.19;;;5.31;100.00
2681;BME280;1350;42.134;24.708;2022-11-27T02:15:20;100533.31;;;5.31;100.00
2681;BME280;1350;42.134;24.708;2022-11-27T02:17:54;100533.16;;;5.40;100.00
2681;BME280;1350;42.134;24.708;2022-11-27T02:20:42;100535.50;;;5.57;100.00
2681;BME280;1350;42.134;24.708;2022-11-27T02:23:48;100534.06;;;5.39;100.00
2681;BME280;1350;42.134;24.708;2022-11-27T02:26:43;100533.16;;;5.40;100.00
2681;BME280;1350;42.134;24.708;2022-11-27T02:29:18;100535.44;;;5.08;100.00
2681;BME280;1350;42.134;24.708;2022-11-27T02:31:51;100537.25;;;5.03;100.00
2681;BME280;1350;42.134;24.708;2022-11-27T02:34:23;100531.84;;;5.12;100.00
2681;BME280;1350;42.134;24.708;2022-11-27T02:36:55;100544.97;;;5.16;100.00
2681;BME280;1350;42.134;24.708;2022-11-27T02:39:31;100539.72;;;5.16;100.00
2681;BME280;1350;42.134;24.708;2022-11-27T02:42:05;100536.75;;;5.36;100.00
2681;BME280;1350;42.134;24.708;2022-11-27T02:44:38;100533.88;;;5.51;100.00
2681;BME280;1350;42.134;24.708;2022-11-27T02:47:07;100539.00;;;5.59;100.00
2681;BME280;1350;42.134;24.708;2022-11-27T02:49:36;100543.38;;;5.58;100.00
2681;BME280;1350;42.134;24.708;2022-11-27T02:52:04;100542.31;;;5.70;100.00
2681;BME280;1350;42.134;24.708;2022-11-27T02:54:33;100543.94;;;5.77;100.00
2681;BME280;1350;42.134;24.708;2022-11-27T02:57:01;100545.16;;;5.58;100.00
2681;BME280;1350;42.134;24.708;2022-11-27T02:59:31;100555.09;;;5.39;100.00
2681;BME280;1350;42.134;24.708;2022-11-27T03:02:04;100554.88;;;5.53;100.00
2681;BME280;1350;42.134;24.708;2022-11-27T03:04:35;100557.53;;;5.51;100.00
2681;BME280;1350;42.134;24.708;2022-11-27T03:07:08;100555.66;;;5.59;100.00
2681;BME280;1350;42.134;24.708;2022-11-27T03:09:40;100562.66;;;5.60;100.00
2681;BME280;1350;42.134;24.708;2022-11-27T03:12:08;100555.75;;;5.53;100.00
2681;BME280;1350;42.134;24.708;2022-11-27T03:14:37;100553.81;;;5.66;100.00
2681;BME280;1350;42.134;24.708;2022-11-27T03:17:15;100562.50;;;5.68;100.00
2681;BME280;1350;42.134;24.708;2022-11-27T03:19:48;100566.00;;;5.70;100.00
2681;BME280;1350;42.134;24.708;2022-11-27T03:22:18;100557.91;;;5.82;100.00
2681;BME280;1350;42.134;24.708;2022-11-27T03:24:44;100559.63;;;5.81;100.00
2681;BME280;1350;42.134;24.708;2022-11-27T03:27:17;100559.63;;;5.86;100.00
2681;BME280;1350;42.134;24.708;2022-11-27T03:29:48;100564.78;;;5.92;100.00
2681;BME280;1350;42.134;24.708;2022-11-27T03:32:18;100563.66;;;6.03;100.00
2681;BME280;1350;42.134;24.708;2022-11-27T03:34:46;100560.13;;;6.04;100.00
2681;BME280;1350;42.134;24.708;2022-11-27T03:37:13;100562.91;;;5.97;100.00
2681;BME280;1350;42.134;24.708;2022-11-27T03:39:41;100563.88;;;5.93;100.00
2681;BME280;1350;42.134;24.708;2022-11-27T03:42:14;100564.28;;;5.69;100.00
2681;BME280;1350;42.134;24.708;2022-11-27T03:44:48;100567.94;;;5.59;100.00
2681;BME280;1350;42.134;24.708;2022-11-27T03:47:27;100570.47;;;5.63;100.00
2681;BME280;1350;42.134;24.708;2022-11-27T03:50:08;100560.72;;;5.70;100.00
2681;BME280;1350;42.134;24.708;2022-11-27T03:52:43;100563.47;;;5.64;100.00
2681;BME280;1350;42.134;24.708;2022-11-27T03:55:22;100558.91;;;5.75;100.00
2681;BME280;1350;42.134;24.708;2022-11-27T03:57:57;100563.47;;;5.64;100.00
2681;BME280;1350;42.134;24.708;2022-11-27T04:00:26;100560.03;;;5.59;100.00
2681;BME280;1350;42.134;24.708;2022-11-27T04:02:57;100557.50;;;5.54;100.00
2681;BME280;1350;42.134;24.708;2022-11-27T04:05:24;100558.63;;;5.37;100.00
2681;BME280;1350;42.134;24.708;2022-11-27T04:07:50;100549.88;;;5.38;100.00
2681;BME280;1350;42.134;24.708;2022-11-27T04:10:17;100549.97;;;5.32;100.00
2681;BME280;1350;42.134;24.708;2022-11-27T04:12:44;100541.28;;;5.27;100.00
2681;BME280;1350;42.134;24.708;2022-11-27T04:15:11;100539.56;;;5.26;100.00
2681;BME280;1350;42.134;24.708;2022-11-27T04:17:38;100548.56;;;5.09;100.00
2681;BME280;1350;42.134;24.708;2022-11-27T04:20:07;100552.16;;;5.04;100.00
2681;BME280;1350;42.134;24.708;2022-11-27T04:22:34;100546.84;;;5.08;100.00
2681;BME280;1350;42.134;24.708;2022-11-27T04:25:01;100553.66;;;5.18;100.00
2681;BME280;1350;42.134;24.708;2022-11-27T04:27:28;100555.22;;;5.33;100.00
2681;BME280;1350;42.134;24.708;2022-11-27T04:29:55;100561.25;;;5.37;100.00
2681;BME280;1350;42.134;24.708;2022-11-27T04:32:21;100548.66;;;5.57;100.00
2681;BME280;1350;42.134;24.708;2022-11-27T04:34:48;100557.41;;;5.59;100.00
2681;BME280;1350;42.134;24.708;2022-11-27T04:37:16;100554.09;;;5.48;100.00
2681;BME280;1350;42.134;24.708;2022-11-27T04:39:43;100549.88;;;5.38;100.00
2681;BME280;1350;42.134;24.708;2022-11-27T04:42:10;100550.78;;;5.35;100.00
2681;BME280;1350;42.134;24.708;2022-11-27T04:44:36;100546.44;;;5.33;100.00
2681;BME280;1350;42.134;24.708;2022-11-27T04:47:03;100551.78;;;5.28;100.00
2681;BME280;1350;42.134;24.708;2022-11-27T04:49:30;100552.66;;;5.29;100.00
2681;BME280;1350;42.134;24.708;2022-11-27T04:51:56;100557.19;;;5.17;100.00
2681;BME280;1350;42.134;24.708;2022-11-27T04:54:25;100562.56;;;5.11;100.00
2681;BME280;1350;42.134;24.708;2022-11-27T04:56:51;100570.50;;;5.07;100.00
2681;BME280;1350;42.134;24.708;2022-11-27T04:59:18;100571.28;;;5.12;100.00
2681;BME280;1350;42.134;24.708;2022-11-27T05:01:45;100563.16;;;5.29;100.00
2681;BME280;1350;42.134;24.708;2022-11-27T05:04:11;100561.97;;;5.48;100.00
2681;BME280;1350;42.134;24.708;2022-11-27T05:06:38;100558.63;;;5.40;100.00
2681;BME280;1350;42.134;24.708;2022-11-27T05:09:05;100560.72;;;5.18;100.00
2681;BME280;1350;42.134;24.708;2022-11-27T05:11:34;100565.31;;;5.02;100.00
2681;BME280;1350;42.134;24.708;2022-11-27T05:14:01;100569.50;;;5.15;100.00
2681;BME280;1350;42.134;24.708;2022-11-27T05:16:42;100566.84;;;5.15;100.00
2681;BME280;1350;42.134;24.708;2022-11-27T05:19:10;100560.69;;;5.19;100.00
2681;BME280;1350;42.134;24.708;2022-11-27T05:21:37;100562.38;;;5.22;100.00
2681;BME280;1350;42.134;24.708;2022-11-27T05:24:04;100569.72;;;5.55;100.00
2681;BME280;1350;42.134;24.708;2022-11-27T05:26:32;100571.47;;;5.58;100.00
2681;BME280;1350;42.134;24.708;2022-11-27T05:29:00;100572.41;;;5.52;100.00
2681;BME280;1350;42.134;24.708;2022-11-27T05:31:27;100579.16;;;5.70;100.00
2681;BME280;1350;42.134;24.708;2022-11-27T05:33:54;100579.03;;;5.76;100.00
2681;BME280;1350;42.134;24.708;2022-11-27T05:36:20;100580.38;;;5.48;100.00
2681;BME280;1350;42.134;24.708;2022-11-27T05:38:47;100585.72;;;5.43;100.00
2681;BME280;1350;42.134;24.708;2022-11-27T05:41:14;100579.44;;;5.53;100.00
2681;BME280;1350;42.134;24.708;2022-11-27T05:43:41;100574.03;;;5.61;100.00
2681;BME280;1350;42.134;24.708;2022-11-27T05:46:12;100582.84;;;5.57;100.00
2681;BME280;1350;42.134;24.708;2022-11-27T05:48:39;100584.75;;;5.50;100.00
2681;BME280;1350;42.134;24.708;2022-11-27T05:51:06;100584.53;;;5.62;100.00
2681;BME280;1350;42.134;24.708;2022-11-27T05:53:34;100593.09;;;5.75;100.00
2681;BME280;1350;42.134;24.708;2022-11-27T05:56:01;100597.91;;;5.50;100.00
2681;BME280;1350;42.134;24.708;2022-11-27T05:58:28;100612.78;;;5.50;100.00
2681;BME280;1350;42.134;24.708;2022-11-27T06:00:54;100600.41;;;5.56;100.00
2681;BME280;1350;42.134;24.708;2022-11-27T06:03:23;100604.75;;;5.59;100.00
2681;BME280;1350;42.134;24.708;2022-11-27T06:05:50;100597.66;;;5.64;100.00
2681;BME280;1350;42.134;24.708;2022-11-27T06:08:17;100605.25;;;5.83;100.00
2681;BME280;1350;42.134;24.708;2022-11-27T06:10:44;100610.31;;;5.95;100.00
2681;BME280;1350;42.134;24.708;2022-11-27T06:13:11;100614.56;;;6.04;100.00
2681;BME280;1350;42.134;24.708;2022-11-27T06:15:38;100610.13;;;6.07;100.00
2681;BME280;1350;42.134;24.708;2022-11-27T06:18:06;100605.53;;;6.17;100.00
2681;BME280;1350;42.134;24.708;2022-11-27T06:20:34;100611.84;;;6.08;100.00
2681;BME280;1350;42.134;24.708;2022-11-27T06:23:01;100614.56;;;6.04;100.00
2681;BME280;1350;42.134;24.708;2022-11-27T06:25:27;100607.69;;;5.94;100.00
2681;BME280;1350;42.134;24.708;2022-11-27T06:27:54;100615.25;;;6.15;100.00
2681;BME280;1350;42.134;24.708;2022-11-27T06:30:21;100612.75;;;6.07;100.00
2681;BME280;1350;42.134;24.708;2022-11-27T06:32:47;100609.88;;;6.21;100.00
2681;BME280;1350;42.134;24.708;2022-11-27T06:35:14;100608.88;;;6.26;100.00
2681;BME280;1350;42.134;24.708;2022-11-27T06:37:42;100601.66;;;6.36;100.00
2681;BME280;1350;42.134;24.708;2022-11-27T06:40:10;100606.25;;;6.25;100.00
2681;BME280;1350;42.134;24.708;2022-11-27T06:42:36;100614.19;;;6.23;100.00
2681;BME280;1350;42.134;24.708;2022-11-27T06:45:04;100613.47;;;6.15;100.00
2681;BME280;1350;42.134;24.708;2022-11-27T06:47:31;100612.63;;;6.15;100.00
2681;BME280;1350;42.134;24.708;2022-11-27T06:49:58;100610.66;;;6.24;100.00
2681;BME280;1350;42.134;24.708;2022-11-27T06:52:24;100618.75;;;6.14;100.00
2681;BME280;1350;42.134;24.708;2022-11-27T06:54:52;100611.59;;;6.22;100.00
2681;BME280;1350;42.134;24.708;2022-11-27T06:57:19;100614.78;;;6.39;100.00
2681;BME280;1350;42.134;24.708;2022-11-27T06:59:46;100608.78;;;6.31;100.00
2681;BME280;1350;42.134;24.708;2022-11-27T07:02:13;100613.09;;;6.36;100.00
2681;BME280;1350;42.134;24.708;2022-11-27T07:04:40;100604.97;;;6.47;100.00
2681;BME280;1350;42.134;24.708;2022-11-27T07:07:06;100611.09;;;6.47;100.00
2681;BME280;1350;42.134;24.708;2022-11-27T07:09:33;100600.72;;;6.38;100.00
2681;BME280;1350;42.134;24.708;2022-11-27T07:12:03;100607.06;;;6.30;100.00
2681;BME280;1350;42.134;24.708;2022-11-27T07:14:30;100612.25;;;6.34;100.00
2681;BME280;1350;42.134;24.708;2022-11-27T07:16:56;100614.41;;;6.57;100.00
2681;BME280;1350;42.134;24.708;2022-11-27T07:19:23;100612.94;;;6.44;100.00
2681;BME280;1350;42.134;24.708;2022-11-27T07:21:50;100613.78;;;6.44;100.00
2681;BME280;1350;42.134;24.708;2022-11-27T07:24:16;100614.75;;;6.40;100.00
2681;BME280;1350;42.134;24.708;2022-11-27T07:26:44;100620.53;;;6.59;100.00
2681;BME280;1350;42.134;24.708;2022-11-27T07:29:12;100615.38;;;6.53;100.00
2681;BME280;1350;42.134;24.708;2022-11-27T07:31:39;100621.59;;;6.49;100.00
2681;BME280;1350;42.134;24.708;2022-11-27T07:34:06;100621.50;;;6.53;100.00
2681;BME280;1350;42.134;24.708;2022-11-27T07:36:32;100615.19;;;6.62;100.00
2681;BME280;1350;42.134;24.708;2022-11-27T07:38:59;100619.56;;;6.63;100.00
2681;BME280;1350;42.134;24.708;2022-11-27T07:41:26;100616.06;;;6.64;100.00
2681;BME280;1350;42.134;24.708;2022-11-27T07:43:52;100617.50;;;6.78;100.00
2681;BME280;1350;42.134;24.708;2022-11-27T07:46:22;100613.13;;;6.77;100.00
2681;BME280;1350;42.134;24.708;2022-11-27T07:48:50;100610.84;;;7.02;100.00
2681;BME280;1350;42.134;24.708;2022-11-27T07:51:18;100623.88;;;7.10;100.00
2681;BME280;1350;42.134;24.708;2022-11-27T07:53:45;100622.94;;;7.11;100.00
2681;BME280;1350;42.134;24.708;2022-11-27T07:56:14;100619.34;;;7.16;100.00
2681;BME280;1350;42.134;24.708;2022-11-27T07:58:41;100623.63;;;7.20;100.00
2681;BME280;1350;42.134;24.708;2022-11-27T08:01:09;100624.19;;;7.34;100.00
2681;BME280;1350;42.134;24.708;2022-11-27T08:03:38;100613.31;;;7.48;100.00
2681;BME280;1350;42.134;24.708;2022-11-27T08:06:12;100611.22;;;7.62;100.00
2681;BME280;1350;42.134;24.708;2022-11-27T08:08:39;100616.34;;;7.68;100.00
2681;BME280;1350;42.134;24.708;2022-11-27T08:11:14;100610.09;;;7.73;100.00
2681;BME280;1350;42.134;24.708;2022-11-27T08:13:40;100618.22;;;7.63;99.14
2681;BME280;1350;42.134;24.708;2022-11-27T08:16:07;100619.81;;;7.71;98.59
2681;BME280;1350;42.134;24.708;2022-11-27T08:18:34;100617.03;;;7.76;98.83
2681;BME280;1350;42.134;24.708;2022-11-27T08:21:02;100612.41;;;7.85;96.88
2681;BME280;1350;42.134;24.708;2022-11-27T08:23:29;100603.50;;;7.89;96.21
2681;BME280;1350;42.134;24.708;2022-11-27T08:25:56;100609.00;;;7.80;95.58
2681;BME280;1350;42.134;24.708;2022-11-27T08:28:22;100604.03;;;8.03;95.42
2681;BME280;1350;42.134;24.708;2022-11-27T08:30:54;100601.91;;;8.17;94.30
2681;BME280;1350;42.134;24.708;2022-11-27T08:33:21;100604.53;;;8.17;92.39
2681;BME280;1350;42.134;24.708;2022-11-27T08:35:48;100606.13;;;8.24;91.58
2681;BME280;1350;42.134;24.708;2022-11-27T08:38:16;100600.81;;;8.26;91.38
2681;BME280;1350;42.134;24.708;2022-11-27T08:40:43;100596.06;;;8.38;90.69
2681;BME280;1350;42.134;24.708;2022-11-27T08:43:10;100601.00;;;8.50;90.22
2681;BME280;1350;42.134;24.708;2022-11-27T08:45:37;100597.38;;;8.54;91.76
2681;BME280;1350;42.134;24.708;2022-11-27T08:48:04;100603.78;;;8.46;89.82
2681;BME280;1350;42.134;24.708;2022-11-27T08:50:31;100605.78;;;8.36;90.97
2681;BME280;1350;42.134;24.708;2022-11-27T08:52:57;100605.66;;;8.42;90.89
2681;BME280;1350;42.134;24.708;2022-11-27T08:55:26;100604.81;;;8.40;91.76
2681;BME280;1350;42.134;24.708;2022-11-27T08:57:52;100601.44;;;8.66;90.65
2681;BME280;1350;42.134;24.708;2022-11-27T09:00:20;100592.63;;;8.67;89.50
2681;BME280;1350;42.134;24.708;2022-11-27T09:02:46;100591.53;;;8.74;89.02
2681;BME280;1350;42.134;24.708;2022-11-27T09:05:13;100592.75;;;8.93;89.85
2681;BME280;1350;42.134;24.708;2022-11-27T09:07:40;100587.28;;;8.99;88.21
2681;BME280;1350;42.134;24.708;2022-11-27T09:10:07;100581.84;;;9.31;94.86
2681;BME280;1350;42.134;24.708;2022-11-27T09:12:35;100587.44;;;9.22;87.48
2681;BME280;1350;42.134;24.708;2022-11-27T09:15:03;100581.19;;;9.25;85.02
2681;BME280;1350;42.134;24.708;2022-11-27T09:17:30;100577.41;;;9.32;83.37
2681;BME280;1350;42.134;24.708;2022-11-27T09:19:56;100578.13;;;9.37;83.26
2681;BME280;1350;42.134;24.708;2022-11-27T09:22:23;100570.69;;;9.49;81.28
2681;BME280;1350;42.134;24.708;2022-11-27T09:24:50;100568.91;;;9.50;81.31
2681;BME280;1350;42.134;24.708;2022-11-27T09:27:16;100574.41;;;9.44;80.87
2681;BME280;1350;42.134;24.708;2022-11-27T09:29:44;100561.06;;;9.47;80.81
2681;BME280;1350;42.134;24.708;2022-11-27T09:32:11;100554.59;;;9.55;81.44
2681;BME280;1350;42.134;24.708;2022-11-27T09:34:38;100551.28;;;9.75;78.81
2681;BME280;1350;42.134;24.708;2022-11-27T09:37:05;100551.00;;;9.84;78.15
2681;BME280;1350;42.134;24.708;2022-11-27T09:39:31;100546.91;;;10.00;77.35
2681;BME280;1350;42.134;24.708;2022-11-27T09:41:59;100533.66;;;10.00;77.12
2681;BME280;1350;42.134;24.708;2022-11-27T09:44:33;100535.31;;;10.02;76.33
2681;BME280;1350;42.134;24.708;2022-11-27T09:47:11;100527.72;;;10.18;75.16
2681;BME280;1350;42.134;24.708;2022-11-27T09:49:44;100521.69;;;10.39;73.73
2681;BME280;1350;42.134;24.708;2022-11-27T09:52:17;100519.38;;;10.53;72.78
2681;BME280;1350;42.134;24.708;2022-11-27T09:54:51;100518.75;;;10.47;72.58
2681;BME280;1350;42.134;24.708;2022-11-27T09:57:24;100517.94;;;10.45;71.93
2681;BME280;1350;42.134;24.708;2022-11-27T09:59:53;100514.34;;;10.69;71.07
2681;BME280;1350;42.134;24.708;2022-11-27T10:02:26;100501.59;;;10.78;70.46
2681;BME280;1350;42.134;24.708;2022-11-27T10:04:54;100500.19;;;10.70;70.31
2681;BME280;1350;42.134;24.708;2022-11-27T10:07:32;100506.91;;;10.55;70.13
2681;BME280;1350;42.134;24.708;2022-11-27T10:10:15;100496.03;;;10.63;69.96
2681;BME280;1350;42.134;24.708;2022-11-27T10:12:54;100498.84;;;10.58;69.79
2681;BME280;1350;42.134;24.708;2022-11-27T10:15:31;100497.94;;;10.59;70.28
2681;BME280;1350;42.134;24.708;2022-11-27T10:18:05;100488.81;;;10.66;70.21
2681;BME280;1350;42.134;24.708;2022-11-27T10:20:40;100486.81;;;10.73;69.78
2681;BME280;1350;42.134;24.708;2022-11-27T10:23:26;100491.16;;;10.97;68.55
2681;BME280;1350;42.134;24.708;2022-11-27T10:26:00;100476.91;;;11.21;67.17
2681;BME280;1350;42.134;24.708;2022-11-27T10:28:34;100477.19;;;11.35;66.23
2681;BME280;1350;42.134;24.708;2022-11-27T10:31:10;100471.25;;;11.30;64.85
2681;BME280;1350;42.134;24.708;2022-11-27T10:33:42;100462.91;;;11.17;64.88
2681;BME280;1350;42.134;24.708;2022-11-27T10:36:14;100466.91;;;11.27;65.32
2681;BME280;1350;42.134;24.708;2022-11-27T10:38:42;100459.00;;;11.26;65.32
2681;BME280;1350;42.134;24.708;2022-11-27T10:41:14;100456.56;;;11.41;65.03
2681;BME280;1350;42.134;24.708;2022-11-27T10:43:44;100453.50;;;11.30;64.78
2681;BME280;1350;42.134;24.708;2022-11-27T10:46:14;100450.00;;;11.30;64.33
2681;BME280;1350;42.134;24.708;2022-11-27T10:48:45;100449.56;;;11.19;64.59
2681;BME280;1350;42.134;24.708;2022-11-27T10:51:14;100450.25;;;11.24;64.03
2681;BME280;1350;42.134;24.708;2022-11-27T10:53:42;100444.84;;;11.47;63.26
2681;BME280;1350;42.134;24.708;2022-11-27T10:56:35;100445.81;;;11.66;62.37
2681;BME280;1350;42.134;24.708;2022-11-27T10:59:08;100439.63;;;11.85;62.22
2681;BME280;1350;42.134;24.708;2022-11-27T11:01:41;100431.84;;;12.01;61.62
2681;BME280;1350;42.134;24.708;2022-11-27T11:04:12;100434.97;;;12.11;61.46
2681;BME280;1350;42.134;24.708;2022-11-27T11:06:42;100424.31;;;12.49;59.02
2681;BME280;1350;42.134;24.708;2022-11-27T11:09:13;100418.47;;;12.60;59.01
2681;BME280;1350;42.134;24.708;2022-11-27T11:11:41;100418.75;;;12.91;57.80
2681;BME280;1350;42.134;24.708;2022-11-27T11:14:15;100402.63;;;12.94;57.51
2681;BME280;1350;42.134;24.708;2022-11-27T11:16:44;100396.59;;;12.72;56.78
2681;BME280;1350;42.134;24.708;2022-11-27T11:19:23;100395.47;;;12.77;56.58
2681;BME280;1350;42.134;24.708;2022-11-27T11:21:50;100399.06;;;12.58;56.57
2681;BME280;1350;42.134;24.708;2022-11-27T11:24:24;100400.44;;;12.66;56.86
2681;BME280;1350;42.134;24.708;2022-11-27T11:26:54;100393.22;;;12.87;56.75
2681;BME280;1350;42.134;24.708;2022-11-27T11:29:27;100400.50;;;12.83;56.88
2681;BME280;1350;42.134;24.708;2022-11-27T11:31:56;100400.44;;;12.66;57.39
2681;BME280;1350;42.134;24.708;2022-11-27T11:34:28;100389.66;;;12.69;59.09
2681;BME280;1350;42.134;24.708;2022-11-27T11:36:56;100384.41;;;12.68;58.89
2681;BME280;1350;42.134;24.708;2022-11-27T11:39:25;100388.56;;;12.55;57.45
2681;BME280;1350;42.134;24.708;2022-11-27T11:41:53;100382.25;;;12.57;57.89
2681;BME280;1350;42.134;24.708;2022-11-27T11:44:22;100377.38;;;12.67;57.03
2681;BME280;1350;42.134;24.708;2022-11-27T11:46:51;100376.03;;;12.75;57.63
2681;BME280;1350;42.134;24.708;2022-11-27T11:49:22;100374.75;;;12.84;56.23
2681;BME280;1350;42.134;24.708;2022-11-27T11:52:05;100368.41;;;12.86;55.85
2681;BME280;1350;42.134;24.708;2022-11-27T11:54:41;100360.63;;;12.28;56.47
2681;BME280;1350;42.134;24.708;2022-11-27T11:57:39;100364.59;;;12.38;56.83
2681;BME280;1350;42.134;24.708;2022-11-27T12:00:13;100363.41;;;12.43;56.20
2681;BME280;1350;42.134;24.708;2022-11-27T12:02:59;100363.63;;;12.39;54.59
2681;BME280;1350;42.134;24.708;2022-11-27T12:05:36;100355.81;;;12.36;53.59
2681;BME280;1350;42.134;24.708;2022-11-27T12:08:26;100352.72;;;12.45;53.30
2681;BME280;1350;42.134;24.708;2022-11-27T12:10:59;100344.06;;;12.58;54.36
2681;BME280;1350;42.134;24.708;2022-11-27T12:13:42;100344.94;;;12.22;54.02
2681;BME280;1350;42.134;24.708;2022-11-27T12:16:15;100346.38;;;12.29;53.84
2681;BME280;1350;42.134;24.708;2022-11-27T12:18:59;100340.81;;;12.52;54.35
2681;BME280;1350;42.134;24.708;2022-11-27T12:21:37;100336.06;;;12.77;54.20
2681;BME280;1350;42.134;24.708;2022-11-27T12:24:19;100336.09;;;12.94;52.22
2681;BME280;1350;42.134;24.708;2022-11-27T12:27:03;100333.75;;;12.69;51.60
2681;BME280;1350;42.134;24.708;2022-11-27T12:33:08;100334.88;;;12.47;51.85
2681;BME280;1350;42.134;24.708;2022-11-27T12:35:43;100336.66;;;11.90;51.77
2681;BME280;1350;42.134;24.708;2022-11-27T12:38:28;100327.13;;;12.05;51.75
2681;BME280;1350;42.134;24.708;2022-11-27T12:41:21;100332.16;;;12.30;50.93
2681;BME280;1350;42.134;24.708;2022-11-27T12:43:52;100328.53;;;11.93;50.88
2681;BME280;1350;42.134;24.708;2022-11-27T12:46:27;100334.81;;;11.93;50.57
2681;BME280;1350;42.134;24.708;2022-11-27T12:48:58;100325.22;;;11.88;51.11
2681;BME280;1350;42.134;24.708;2022-11-27T12:51:28;100322.63;;;11.87;50.24
2681;BME280;1350;42.134;24.708;2022-11-27T12:54:00;100324.38;;;11.88;50.45
2681;BME280;1350;42.134;24.708;2022-11-27T12:56:32;100327.22;;;11.65;50.53
2681;BME280;1350;42.134;24.708;2022-11-27T12:59:05;100331.59;;;11.66;50.20
2681;BME280;1350;42.134;24.708;2022-11-27T13:01:40;100331.09;;;11.56;50.14
2681;BME280;1350;42.134;24.708;2022-11-27T13:04:17;100325.72;;;11.58;49.89
2681;BME280;1350;42.134;24.708;2022-11-27T13:06:51;100328.31;;;11.59;50.00
2681;BME280;1350;42.134;24.708;2022-11-27T13:09:25;100326.22;;;11.67;50.16
2681;BME280;1350;42.134;24.708;2022-11-27T13:11:54;100320.09;;;11.65;50.39
2681;BME280;1350;42.134;24.708;2022-11-27T13:14:24;100321.09;;;11.43;49.71
2681;BME280;1350;42.134;24.708;2022-11-27T13:16:56;100324.47;;;11.46;50.06
2681;BME280;1350;42.134;24.708;2022-11-27T13:19:29;100329.72;;;11.48;49.84
2681;BME280;1350;42.134;24.708;2022-11-27T13:21:58;100326.00;;;11.52;50.57